TimeEDT,TemperatureF,Dew PointF,Humidity,Sea Level PressureIn,VisibilityMPH,Wind Direction,Wind SpeedMPH,Gust SpeedMPH,PrecipitationIn,Events,Conditions,WindDirDegrees,DateUTC
12:53 AM,62.1,57.9,86,30.05,10.0,Calm,Calm,-,N/A,,Clear,0,2011-10-17 04:53:00
1:53 AM,60.1,57.0,90,30.04,10.0,Calm,Calm,-,N/A,,Clear,0,2011-10-17 05:53:00
2:53 AM,61.0,57.0,87,30.03,10.0,Calm,Calm,-,N/A,,Clear,0,2011-10-17 06:53:00
3:53 AM,60.1,57.0,90,30.02,10.0,Calm,Calm,-,N/A,,Clear,0,2011-10-17 07:53:00
4:10 AM,60.8,57.2,88,30.02,10.0,Calm,Calm,-,N/A,,Scattered Clouds,0,2011-10-17 08:10:00
4:22 AM,60.8,57.2,88,30.02,10.0,Calm,Calm,-,N/A,,Mostly Cloudy,0,2011-10-17 08:22:00
4:40 AM,60.8,57.2,88,30.01,10.0,Calm,Calm,-,N/A,,Scattered Clouds,0,2011-10-17 08:40:00
4:53 AM,60.1,57.0,90,30.01,10.0,Calm,Calm,-,N/A,,Mostly Cloudy,0,2011-10-17 08:53:00
5:32 AM,60.8,57.2,88,30.01,9.0,Calm,Calm,-,N/A,,Scattered Clouds,0,2011-10-17 09:32:00
6:05 AM,60.8,57.2,88,30.01,7.0,Calm,Calm,-,N/A,,Scattered Clouds,0,2011-10-17 10:05:00
6:53 AM,59.0,55.9,90,30.02,10.0,Calm,Calm,-,N/A,,Clear,0,2011-10-17 10:53:00
7:53 AM,60.1,57.0,90,30.02,10.0,Calm,Calm,-,N/A,,Clear,0,2011-10-17 11:53:00
8:53 AM,66.9,64.9,93,30.04,9.0,Calm,Calm,-,N/A,,Clear,0,2011-10-17 12:53:00
9:53 AM,75.0,68.0,79,30.05,10.0,NE,3.5,-,N/A,,Clear,40,2011-10-17 13:53:00
11:53 AM,81.0,66.0,60,30.03,10.0,East,3.5,-,N/A,,Clear,80,2011-10-17 15:53:00
12:53 PM,82.0,66.0,58,29.99,10.0,SE,8.1,-,N/A,,Partly Cloudy,140,2011-10-17 16:53:00
1:53 PM,82.9,66.9,58,29.96,10.0,East,6.9,-,N/A,,Partly Cloudy,80,2011-10-17 17:53:00
2:53 PM,82.9,66.9,58,29.93,10.0,East,10.4,-,N/A,,Clear,100,2011-10-17 18:53:00
3:53 PM,82.0,66.0,58,29.92,10.0,ESE,9.2,-,N/A,,Clear,120,2011-10-17 19:53:00
4:53 PM,81.0,68.0,65,29.91,10.0,SE,9.2,-,N/A,,Clear,140,2011-10-17 20:53:00
5:53 PM,79.0,68.0,69,29.92,10.0,SE,8.1,-,N/A,,Clear,130,2011-10-17 21:53:00
6:53 PM,77.0,68.0,74,29.92,10.0,ESE,4.6,-,N/A,,Clear,120,2011-10-17 22:53:00
8:53 PM,73.0,68.0,84,29.92,10.0,Calm,Calm,-,N/A,,Clear,0,2011-10-18 00:53:00
9:53 PM,71.1,68.0,90,29.92,10.0,Calm,Calm,-,N/A,,Clear,0,2011-10-18 01:53:00
10:53 PM,70.0,66.9,90,29.91,10.0,Calm,Calm,-,N/A,,Clear,0,2011-10-18 02:53:00
11:53 PM,70.0,66.9,90,29.90,10.0,Calm,Calm,-,N/A,,Clear,0,2011-10-18 03:53:00